Fort Drum, New York
Current Conditions -  °F | °C
As of 7:58 AM on Friday 24 Oct 2014 (Local Time) from KGTB Reporting Station
Overcast Overcast  
Wind Chill: 44°   Ceiling: 1300
Heat Index: 44°   Visibility: 10mi
Dew Point: 44°   Wind: 0mph
Humidity: 99%   Direction: NA
Pressure: 29.92"   Gusts: NA
Location:  44.04°N, 75.77°W
Report Text: KGTB 241158Z AUTO 00000KT 10SM OVC013 07/06 A2992 RMK AO2 SLP136 7//// T00660064 10069 20064 56004
Loading
Personal Weather Stations






























Interactive Weather Map
Tropical Storm Tracking
New forecast layout! Learn more

10-Day Weather Forecast

Advertisements
Track Severe Weather on mobile